Terminal Aerodrome Forecast
Issued by NWS Goodland, KS

Home | Current Version | Previous Version | Text Only | Print | Product List | Glossary On
Versions: 1 2 3 4 5 6 7 8 9 10 11 12 13 14 15 16 17
000
FTUS43 KGLD 281125
TAFGLD
TAF
KGLD 281125Z 2812/2912 31010KT P6SM BKN110
     FM282000 06007KT P6SM BKN060
     FM290200 07010KT P6SM VCSH BKN090
     FM290500 07012KT 5SM -SHRA OVC015
     FM290600 07012KT 3SM SHRA OVC008
     FM290800 06011G16KT 3SM SHRA OVC003
     FM291100 06011G16KT 2SM SHRA OVC003=

USA.gov is the U.S. government's official web portal to all federal, state and local government web resources and services.